createdAt,value
2022-12-16T00:00:08.633Z,113.96
2022-12-16T00:02:35.792Z,114.06
2022-12-16T00:05:02.878Z,114.17
2022-12-16T00:07:29.739Z,114.45
2022-12-16T00:09:56.490Z,114.36
2022-12-16T00:12:23.258Z,114.33
2022-12-16T00:14:49.993Z,114.16
2022-12-16T00:17:17.509Z,114.32
2022-12-16T00:19:44.178Z,114.10
2022-12-16T00:22:10.917Z,114.06
2022-12-16T00:24:37.607Z,114.06
2022-12-16T00:27:04.360Z,113.82
2022-12-16T00:29:31.062Z,113.75
2022-12-16T00:31:57.810Z,113.75
2022-12-16T00:34:24.535Z,113.57
2022-12-16T00:36:51.857Z,113.43
2022-12-16T00:39:19.081Z,113.23
2022-12-16T00:41:47.598Z,112.90
2022-12-16T00:44:14.317Z,112.77
2022-12-16T00:46:40.998Z,112.65
2022-12-16T00:49:07.713Z,112.76
2022-12-16T00:51:34.404Z,113.03
2022-12-16T00:54:01.166Z,113.05
2022-12-16T00:56:27.837Z,112.91
2022-12-16T00:58:54.814Z,113.22
2022-12-16T01:01:21.773Z,113.32
2022-12-16T01:03:48.600Z,113.83
2022-12-16T01:06:17.706Z,113.51
2022-12-16T01:08:48.459Z,113.16
2022-12-16T01:11:19.808Z,113.03
2022-12-16T01:13:50.251Z,113.31
2022-12-16T01:16:18.811Z,113.34
2022-12-16T01:18:45.874Z,113.51
2022-12-16T01:21:14.505Z,113.13
2022-12-16T01:23:41.253Z,113.22
2022-12-16T01:26:08.077Z,112.90
2022-12-16T01:28:34.913Z,113.22
2022-12-16T01:31:02.109Z,113.07
2022-12-16T01:33:30.326Z,112.84
2022-12-16T01:36:05.929Z,113.09
2022-12-16T01:38:33.445Z,113.20
2022-12-16T01:41:00.229Z,113.45
2022-12-16T01:43:37.996Z,113.36
2022-12-16T01:46:21.715Z,113.29
2022-12-16T01:48:51.410Z,113.09
2022-12-16T01:51:33.956Z,112.82
2022-12-16T01:54:04.853Z,112.77
2022-12-16T01:56:34.718Z,113.01
2022-12-16T01:59:02.889Z,112.98
2022-12-16T02:01:29.985Z,112.96
2022-12-16T02:04:01.881Z,113.03
2022-12-16T02:06:30.055Z,112.96
2022-12-16T02:09:00.298Z,113.51
2022-12-16T02:12:14.691Z,113.21
2022-12-16T02:15:20.945Z,112.86
2022-12-16T02:17:59.941Z,112.80
2022-12-16T02:21:03.137Z,112.84
2022-12-16T02:23:42.956Z,113.18
2022-12-16T02:26:24.212Z,113.28
2022-12-16T02:29:07.723Z,112.84
2022-12-16T02:31:55.259Z,112.90
2022-12-16T02:34:37.143Z,113.10
2022-12-16T02:37:10.373Z,112.95
2022-12-16T02:39:52.057Z,113.03
2022-12-16T02:42:27.707Z,113.06
2022-12-16T02:45:01.494Z,113.10
2022-12-16T02:47:29.665Z,113.14
2022-12-16T02:49:56.790Z,113.00
2022-12-16T02:52:30.217Z,112.90
2022-12-16T02:55:00.641Z,112.77
2022-12-16T02:57:41.935Z,112.70
2022-12-16T03:00:15.827Z,112.97
2022-12-16T03:02:49.575Z,112.41
2022-12-16T03:05:28.868Z,112.43
2022-12-16T03:07:59.607Z,112.36
2022-12-16T03:10:32.615Z,112.27
2022-12-16T03:13:01.446Z,112.48
2022-12-16T03:15:33.041Z,112.39
2022-12-16T03:18:01.898Z,112.14
2022-12-16T03:20:35.741Z,112.72
2022-12-16T03:23:08.577Z,112.58
2022-12-16T03:25:38.764Z,112.68
2022-12-16T03:28:28.297Z,112.16
2022-12-16T03:31:10.720Z,111.88
2022-12-16T03:33:56.590Z,111.92
2022-12-16T03:36:26.278Z,112.01
2022-12-16T03:38:55.572Z,111.69
2022-12-16T03:41:24.440Z,111.96
2022-12-16T03:43:51.939Z,112.22
2022-12-16T03:46:18.903Z,111.78
2022-12-16T03:48:47.360Z,111.65
2022-12-16T03:51:14.222Z,111.83
2022-12-16T03:53:40.955Z,111.97
2022-12-16T03:56:07.694Z,111.72
2022-12-16T03:58:35.348Z,111.78
2022-12-16T04:01:02.159Z,111.64
2022-12-16T04:03:29.012Z,111.61
2022-12-16T04:05:55.871Z,111.79
2022-12-16T04:08:22.631Z,112.16
2022-12-16T04:11:11.921Z,111.94
2022-12-16T04:13:57.220Z,112.10
2022-12-16T04:16:46.105Z,112.41
2022-12-16T04:19:42.604Z,112.49
2022-12-16T04:22:33.562Z,112.72
2022-12-16T04:25:12.932Z,112.76
2022-12-16T04:27:39.678Z,112.60
2022-12-16T04:30:22.148Z,112.51
2022-12-16T04:33:17.736Z,112.21
2022-12-16T04:36:03.460Z,112.00
2022-12-16T04:38:49.331Z,111.97
2022-12-16T04:41:35.204Z,112.97
2022-12-16T04:44:20.988Z,112.91
2022-12-16T04:47:06.454Z,113.01
2022-12-16T04:49:51.699Z,112.53
2022-12-16T04:52:37.403Z,112.28
2022-12-16T04:55:23.127Z,111.97
2022-12-16T04:58:14.106Z,112.16
2022-12-16T05:01:00.709Z,112.03
2022-12-16T05:03:46.876Z,112.19
2022-12-16T05:06:33.262Z,111.92
2022-12-16T05:09:18.396Z,111.94
2022-12-16T05:12:03.858Z,111.49
2022-12-16T05:14:49.001Z,112.16
2022-12-16T05:17:34.379Z,111.90
2022-12-16T05:20:19.752Z,112.09
2022-12-16T05:23:04.998Z,111.67
2022-12-16T05:25:50.847Z,111.77
2022-12-16T05:28:36.091Z,111.85
2022-12-16T05:31:21.919Z,111.92
2022-12-16T05:34:07.471Z,111.89
2022-12-16T05:36:52.647Z,112.21
2022-12-16T05:39:38.037Z,111.81
2022-12-16T05:42:23.418Z,111.50
2022-12-16T05:45:08.767Z,111.68
2022-12-16T05:47:54.025Z,111.50
2022-12-16T05:50:39.085Z,111.29
2022-12-16T05:53:24.388Z,111.77
2022-12-16T05:56:09.534Z,111.65
2022-12-16T05:58:55.002Z,111.68
2022-12-16T06:01:41.109Z,111.64
2022-12-16T06:04:26.647Z,111.14
2022-12-16T06:07:11.997Z,111.47
2022-12-16T06:09:57.385Z,111.41
2022-12-16T06:12:42.544Z,111.07
2022-12-16T06:15:28.318Z,111.07
2022-12-16T06:18:13.576Z,111.14
2022-12-16T06:20:59.007Z,111.12
2022-12-16T06:23:44.283Z,110.76
2022-12-16T06:26:29.506Z,110.86
2022-12-16T06:29:14.543Z,110.54
2022-12-16T06:31:59.979Z,110.36
2022-12-16T06:34:45.533Z,110.52
2022-12-16T06:37:30.907Z,110.89
2022-12-16T06:40:16.346Z,110.39
2022-12-16T06:43:01.596Z,110.71
2022-12-16T06:45:46.947Z,110.81
2022-12-16T06:48:32.197Z,110.78
2022-12-16T06:51:17.659Z,110.39
2022-12-16T06:54:03.368Z,110.10
2022-12-16T06:56:48.953Z,110.08
2022-12-16T06:59:34.456Z,109.91
2022-12-16T07:02:19.828Z,109.81
2022-12-16T07:05:05.433Z,113.25
2022-12-16T07:07:50.711Z,110.90
2022-12-16T07:10:36.045Z,110.73
2022-12-16T07:13:21.337Z,110.59
2022-12-16T07:16:06.807Z,110.73
2022-12-16T07:18:52.328Z,110.46
2022-12-16T07:21:37.525Z,110.40
2022-12-16T07:24:23.449Z,110.87
2022-12-16T07:27:08.644Z,110.90
2022-12-16T07:29:54.140Z,110.98
2022-12-16T07:32:39.394Z,111.00
2022-12-16T07:35:36.935Z,111.13
2022-12-16T07:38:37.779Z,111.24
2022-12-16T07:45:29.647Z,111.00
2022-12-16T07:48:15.172Z,110.62
2022-12-16T07:51:00.804Z,110.37
2022-12-16T07:53:46.732Z,110.01
2022-12-16T07:56:32.060Z,110.70
2022-12-16T07:59:17.240Z,110.49
2022-12-16T08:02:02.765Z,110.28
2022-12-16T08:04:48.030Z,110.33
2022-12-16T08:07:33.297Z,110.29
2022-12-16T08:10:18.543Z,110.14
2022-12-16T08:13:03.881Z,109.76
2022-12-16T08:15:49.479Z,109.57
2022-12-16T08:18:34.660Z,109.50
2022-12-16T08:21:19.871Z,109.75
2022-12-16T08:24:05.080Z,109.39
2022-12-16T08:26:50.394Z,109.07
2022-12-16T08:29:44.981Z,108.86
2022-12-16T08:32:31.923Z,109.07
2022-12-16T08:35:17.031Z,109.62
2022-12-16T08:38:02.397Z,109.04
2022-12-16T08:40:48.122Z,109.33
2022-12-16T08:43:34.362Z,108.87
2022-12-16T08:46:20.664Z,108.90
2022-12-16T08:49:06.195Z,108.88
2022-12-16T08:51:51.583Z,108.42
2022-12-16T08:54:36.923Z,108.07
2022-12-16T08:57:22.175Z,107.96
2022-12-16T09:00:07.847Z,109.73
2022-12-16T09:02:53.581Z,107.68
2022-12-16T09:05:41.471Z,107.37
2022-12-16T09:08:27.025Z,106.76
2022-12-16T09:11:12.203Z,106.31
2022-12-16T09:13:57.640Z,106.24
2022-12-16T09:16:43.233Z,109.67
2022-12-16T09:19:29.177Z,107.78
2022-12-16T09:22:14.451Z,107.43
2022-12-16T09:24:59.747Z,107.17
2022-12-16T09:27:45.139Z,105.50
2022-12-16T09:30:30.887Z,105.10
2022-12-16T09:33:16.542Z,104.86
2022-12-16T09:36:02.136Z,104.54
2022-12-16T09:38:47.413Z,103.99
2022-12-16T09:41:55.502Z,104.11
2022-12-16T09:45:13.586Z,104.35
2022-12-16T09:48:18.621Z,104.87
2022-12-16T09:51:04.946Z,104.88
2022-12-16T09:53:54.918Z,105.09
2022-12-16T09:56:46.774Z,103.48
2022-12-16T09:59:41.010Z,103.45
2022-12-16T10:02:36.144Z,103.54
2022-12-16T10:05:22.091Z,103.19
2022-12-16T10:08:19.217Z,103.67
2022-12-16T10:11:07.735Z,102.92
2022-12-16T10:14:02.961Z,102.49
2022-12-16T10:17:21.505Z,101.73
2022-12-16T10:20:09.392Z,102.49
2022-12-16T10:23:14.301Z,102.54
2022-12-16T10:26:05.673Z,102.21
2022-12-16T10:29:22.770Z,102.20
2022-12-16T10:32:08.155Z,101.35
2022-12-16T10:34:56.052Z,100.45
2022-12-16T10:38:02.148Z,100.36
2022-12-16T10:40:52.423Z,100.22
2022-12-16T10:44:02.978Z,99.85
2022-12-16T10:46:53.283Z,99.48
2022-12-16T10:49:39.628Z,99.53
2022-12-16T10:52:25.534Z,99.44
2022-12-16T10:55:26.070Z,98.69
2022-12-16T10:58:34.140Z,98.62
2022-12-16T11:01:39.993Z,97.24
2022-12-16T11:04:52.890Z,97.54
2022-12-16T11:07:56.690Z,98.70
2022-12-16T11:10:44.990Z,97.63
2022-12-16T11:13:38.273Z,97.07
2022-12-16T11:16:31.792Z,96.55
2022-12-16T11:19:17.652Z,95.29
2022-12-16T11:22:03.549Z,93.22
2022-12-16T11:24:49.119Z,93.43
2022-12-16T11:27:45.864Z,93.61
2022-12-16T11:30:41.894Z,93.27
2022-12-16T11:33:40.756Z,91.92
2022-12-16T11:36:33.637Z,90.35
2022-12-16T11:39:21.845Z,89.35
2022-12-16T11:42:10.930Z,88.79
2022-12-16T11:45:13.976Z,89.11
2022-12-16T11:48:11.377Z,88.10
2022-12-16T11:51:01.698Z,88.25
2022-12-16T11:54:15.655Z,87.82
2022-12-16T11:57:03.386Z,88.32
2022-12-16T11:59:58.833Z,87.64
2022-12-16T12:02:55.048Z,88.05
2022-12-16T12:05:55.866Z,88.57
2022-12-16T12:08:50.112Z,90.08
2022-12-16T12:11:55.602Z,91.26
2022-12-16T12:15:12.007Z,91.79
2022-12-16T12:18:11.339Z,91.60
2022-12-16T12:21:31.611Z,92.61
2022-12-16T12:24:33.834Z,93.35
2022-12-16T12:27:46.214Z,94.37
2022-12-16T12:30:39.545Z,94.98
2022-12-16T12:33:29.420Z,98.48
2022-12-16T12:36:54.250Z,95.55
2022-12-16T12:39:58.909Z,95.16
2022-12-16T12:42:59.806Z,94.94
2022-12-16T12:46:05.911Z,95.36
2022-12-16T12:49:07.313Z,95.59
2022-12-16T12:52:25.414Z,95.27
2022-12-16T12:55:40.817Z,95.81
2022-12-16T12:58:28.639Z,95.59
2022-12-16T13:01:16.622Z,95.62
2022-12-16T13:04:09.344Z,95.09
2022-12-16T13:06:56.117Z,94.89
2022-12-16T13:09:55.686Z,95.58
2022-12-16T13:12:44.670Z,95.41
2022-12-16T13:15:57.563Z,94.04
2022-12-16T13:18:47.115Z,94.56
2022-12-16T13:21:54.947Z,95.02
2022-12-16T13:24:42.009Z,94.81
2022-12-16T13:27:43.647Z,94.65
2022-12-16T13:30:29.195Z,94.50
2022-12-16T13:33:16.804Z,94.72
2022-12-16T13:36:17.197Z,96.46
2022-12-16T13:39:08.113Z,96.60
2022-12-16T13:41:53.541Z,97.12
2022-12-16T13:45:00.883Z,97.87
2022-12-16T13:48:01.368Z,97.87
2022-12-16T13:51:05.106Z,98.42
2022-12-16T13:53:56.082Z,98.97
2022-12-16T13:56:56.651Z,99.83
2022-12-16T13:59:45.359Z,100.22
2022-12-16T14:02:54.651Z,99.67
2022-12-16T14:05:48.920Z,100.56
2022-12-16T14:08:38.286Z,100.84
2022-12-16T14:11:32.672Z,100.61
2022-12-16T14:14:26.774Z,101.56
2022-12-16T14:17:19.791Z,102.18
2022-12-16T14:20:47.582Z,103.03
2022-12-16T14:23:55.838Z,103.36
2022-12-16T14:26:39.114Z,104.13
2022-12-16T14:29:43.221Z,104.53
2022-12-16T14:32:49.621Z,105.47
2022-12-16T14:35:44.474Z,106.00
2022-12-16T14:38:43.450Z,105.82
2022-12-16T14:41:39.967Z,106.40
2022-12-16T14:44:55.597Z,106.68
2022-12-16T14:47:41.788Z,106.56
2022-12-16T14:50:48.286Z,106.21
2022-12-16T14:53:42.578Z,107.11
2022-12-16T14:56:35.107Z,107.53
2022-12-16T14:59:27.817Z,107.28
2022-12-16T15:02:16.090Z,107.46
2022-12-16T15:05:02.368Z,107.81
2022-12-16T15:07:54.632Z,108.23
2022-12-16T15:10:45.153Z,108.41
2022-12-16T15:13:36.894Z,108.27
2022-12-16T15:16:23.918Z,108.63
2022-12-16T15:19:18.356Z,108.36
2022-12-16T15:22:04.373Z,108.04
2022-12-16T15:24:55.151Z,107.50
2022-12-16T15:27:41.081Z,106.94
2022-12-16T15:31:06.499Z,107.04
2022-12-16T15:33:57.836Z,106.46
2022-12-16T15:36:47.537Z,106.97
2022-12-16T15:39:52.276Z,107.13
2022-12-16T15:42:41.658Z,106.80
2022-12-16T15:46:09.576Z,107.04
2022-12-16T15:48:56.371Z,107.79
2022-12-16T15:51:52.089Z,107.17
2022-12-16T15:54:40.516Z,107.21
2022-12-16T15:57:58.971Z,107.18
2022-12-16T16:00:47.433Z,107.10
2022-12-16T16:03:36.110Z,107.29
2022-12-16T16:06:22.599Z,106.61
2022-12-16T16:09:11.067Z,105.75
2022-12-16T16:12:16.387Z,106.38
2022-12-16T16:15:02.495Z,105.59
2022-12-16T16:17:48.353Z,105.18
2022-12-16T16:20:37.440Z,105.11
2022-12-16T16:23:24.161Z,110.28
2022-12-16T16:26:09.991Z,107.69
2022-12-16T16:28:55.346Z,107.67
2022-12-16T16:31:42.231Z,107.06
2022-12-16T16:34:41.731Z,105.52
2022-12-16T16:37:34.014Z,104.50
2022-12-16T16:40:23.350Z,103.61
2022-12-16T16:43:11.706Z,103.40
2022-12-16T16:46:17.292Z,102.72
2022-12-16T16:49:02.403Z,102.09
2022-12-16T16:51:48.954Z,101.83
2022-12-16T16:54:34.495Z,101.63
2022-12-16T16:57:22.397Z,103.31
2022-12-16T17:00:07.746Z,106.35
2022-12-16T17:02:53.192Z,111.40
2022-12-16T17:05:38.536Z,107.49
2022-12-16T17:08:23.919Z,107.43
2022-12-16T17:11:09.421Z,107.59
2022-12-16T17:13:54.880Z,108.12
2022-12-16T17:16:40.407Z,108.32
2022-12-16T17:19:25.736Z,108.08
2022-12-16T17:22:11.414Z,108.10
2022-12-16T17:24:58.150Z,108.66
2022-12-16T17:27:44.458Z,108.07
2022-12-16T17:30:45.169Z,107.57
2022-12-16T17:33:33.027Z,107.14
2022-12-16T17:36:18.806Z,106.56
2022-12-16T17:39:04.736Z,105.87
2022-12-16T17:41:51.859Z,105.43
2022-12-16T17:44:37.862Z,105.22
2022-12-16T17:47:25.676Z,104.92
2022-12-16T17:50:10.974Z,104.88
2022-12-16T17:52:56.332Z,103.60
2022-12-16T17:55:41.670Z,103.64
2022-12-16T17:58:37.532Z,103.36
2022-12-16T18:01:25.195Z,103.31
2022-12-16T18:04:10.939Z,102.95
2022-12-16T18:06:56.382Z,103.12
2022-12-16T18:09:41.914Z,102.02
2022-12-16T18:12:27.296Z,101.19
2022-12-16T18:15:12.512Z,101.64
2022-12-16T18:17:57.827Z,101.89
2022-12-16T18:20:42.970Z,101.97
2022-12-16T18:23:28.531Z,101.79
2022-12-16T18:26:22.441Z,101.08
2022-12-16T18:29:08.356Z,100.33
2022-12-16T18:31:53.691Z,100.36
2022-12-16T18:34:41.946Z,99.96
2022-12-16T18:37:33.565Z,100.45
2022-12-16T18:40:19.017Z,100.17
2022-12-16T18:43:07.755Z,100.60
2022-12-16T18:46:03.454Z,101.89
2022-12-16T18:48:48.837Z,103.62
2022-12-16T18:51:34.243Z,103.02
2022-12-16T18:54:30.665Z,101.22
2022-12-16T18:57:16.045Z,100.73
2022-12-16T19:00:01.407Z,100.65
2022-12-16T19:02:47.252Z,100.63
2022-12-16T19:05:34.017Z,99.41
2022-12-16T19:08:19.427Z,99.69
2022-12-16T19:11:04.851Z,99.67
2022-12-16T19:13:50.187Z,99.74
2022-12-16T19:16:35.462Z,99.56
2022-12-16T19:19:21.010Z,99.14
2022-12-16T19:22:06.825Z,98.76
2022-12-16T19:24:55.068Z,99.09
2022-12-16T19:27:42.235Z,100.00
2022-12-16T19:30:28.658Z,100.00
2022-12-16T19:33:14.134Z,99.74
2022-12-16T19:35:59.625Z,99.44
2022-12-16T19:38:48.067Z,100.01
2022-12-16T19:41:37.832Z,100.61
2022-12-16T19:44:26.015Z,100.43
2022-12-16T19:47:16.592Z,100.28
2022-12-16T19:50:02.317Z,100.28
2022-12-16T19:52:47.831Z,100.04
2022-12-16T19:55:35.438Z,100.32
2022-12-16T19:58:21.668Z,99.51
2022-12-16T20:01:07.376Z,98.55
2022-12-16T20:03:53.562Z,98.33
2022-12-16T20:06:42.123Z,98.48
2022-12-16T20:09:27.508Z,97.97
2022-12-16T20:12:17.746Z,97.53
2022-12-16T20:15:06.456Z,97.21
2022-12-16T20:17:51.786Z,97.59
2022-12-16T20:20:37.294Z,97.90
2022-12-16T20:23:24.642Z,97.74
2022-12-16T20:26:18.858Z,98.08
2022-12-16T20:29:05.402Z,98.10
2022-12-16T20:31:51.388Z,98.64
2022-12-16T20:34:37.397Z,99.13
2022-12-16T20:37:23.448Z,98.90
2022-12-16T20:40:09.376Z,99.22
2022-12-16T20:42:54.964Z,98.84
2022-12-16T20:45:41.710Z,98.50
2022-12-16T20:48:31.602Z,99.26
2022-12-16T20:54:28.966Z,99.10
2022-12-16T20:57:14.886Z,98.74
2022-12-16T21:00:00.457Z,98.12
2022-12-16T21:02:45.846Z,98.03
2022-12-16T21:05:31.167Z,97.80
2022-12-16T21:08:16.717Z,97.55
2022-12-16T21:11:02.045Z,97.71
2022-12-16T21:13:47.712Z,97.45
2022-12-16T21:16:33.920Z,97.55
2022-12-16T21:19:19.119Z,97.48
2022-12-16T21:22:04.832Z,97.32
2022-12-16T21:24:50.172Z,98.45
2022-12-16T21:27:35.444Z,99.41
2022-12-16T21:30:21.014Z,99.56
2022-12-16T21:33:09.917Z,101.96
2022-12-16T21:35:58.465Z,102.15
2022-12-16T21:38:43.947Z,100.52
2022-12-16T21:41:29.282Z,99.71
2022-12-16T21:44:17.667Z,99.07
2022-12-16T21:47:02.971Z,98.48
2022-12-16T21:49:49.284Z,98.32
2022-12-16T21:52:35.431Z,99.67
2022-12-16T21:55:21.087Z,101.81
2022-12-16T21:58:09.524Z,102.04
2022-12-16T22:00:58.893Z,100.49
2022-12-16T22:03:52.208Z,99.05
2022-12-16T22:06:40.023Z,98.92
2022-12-16T22:09:28.741Z,98.60
2022-12-16T22:12:14.356Z,98.38
2022-12-16T22:15:03.276Z,98.26
2022-12-16T22:17:57.791Z,98.65
2022-12-16T22:20:43.696Z,100.20
2022-12-16T22:23:28.958Z,100.24
2022-12-16T22:26:14.675Z,99.64
2022-12-16T22:29:00.659Z,99.66
2022-12-16T22:31:46.188Z,98.60
2022-12-16T22:34:31.445Z,99.18
2022-12-16T22:36:21.565Z,98.94
2022-12-16T22:37:16.661Z,100.00
2022-12-16T22:40:02.007Z,100.30
2022-12-16T22:42:47.313Z,99.60
2022-12-16T22:45:32.536Z,99.65
2022-12-16T22:48:17.775Z,99.84
2022-12-16T22:51:03.294Z,101.80
2022-12-16T22:53:48.591Z,99.98
2022-12-16T22:56:33.741Z,99.29
2022-12-16T22:59:18.973Z,99.60
2022-12-16T23:02:04.338Z,99.53
2022-12-16T23:04:49.778Z,99.22
2022-12-16T23:07:34.964Z,99.14
2022-12-16T23:10:20.588Z,99.09
2022-12-16T23:13:05.981Z,99.06
2022-12-16T23:15:52.006Z,99.70
2022-12-16T23:18:37.387Z,100.48
2022-12-16T23:21:22.755Z,100.51
2022-12-16T23:24:11.309Z,100.37
2022-12-16T23:26:56.557Z,99.08
2022-12-16T23:29:41.836Z,98.52
2022-12-16T23:32:27.347Z,99.12
2022-12-16T23:35:12.714Z,98.77
2022-12-16T23:37:58.204Z,99.00
2022-12-16T23:40:43.336Z,99.89
2022-12-16T23:43:28.909Z,98.36
2022-12-16T23:46:14.315Z,98.77
2022-12-16T23:48:59.612Z,99.20
2022-12-16T23:51:44.859Z,99.58
2022-12-16T23:54:29.999Z,99.81
2022-12-16T23:57:15.257Z,98.93
